Time;durP1;ratioP1;P1;durP2;ratioP2;P2;SDS_P1;SDS_P2;PMS_P1;PMS_P2;Temp;Humidity;BMP_temperature;BMP_pressure;BME280_temperature;BME280_humidity;BME280_pressure;Samples;Min_cycle;Max_cycle;Signal;HPM_P1;HPM_P2
2021/09/10 00:02:04;;;;;;;8.90;6.47;;;;;;;18.47;91.14;101194.06;6177101;23;20004;-77
2021/09/10 00:04:30;;;;;;;10.55;6.78;;;;;;;18.49;91.47;101195.81;6180505;23;20005;-78
2021/09/10 00:06:55;;;;;;;14.50;8.68;;;;;;;18.52;91.29;101195.75;6157185;23;20016;-79
2021/09/10 00:09:21;;;;;;;13.63;8.05;;;;;;;18.57;91.39;101197.50;6181747;23;20005;-77
2021/09/10 00:12:06;;;;;;;14.95;8.90;;;;;;;18.63;91.49;101200.09;6183480;23;20009;-77
2021/09/10 00:14:32;;;;;;;12.65;8.95;;;;;;;18.65;91.74;101204.53;6182963;23;20008;-78
2021/09/10 00:16:57;;;;;;;12.98;9.00;;;;;;;18.70;91.79;101196.47;6182315;23;20029;-78
2021/09/10 00:19:23;;;;;;;14.63;8.98;;;;;;;18.73;91.32;101187.56;6182042;23;20008;-77
2021/09/10 00:21:48;;;;;;;13.93;9.30;;;;;;;18.77;91.53;101192.81;6153755;23;20021;-78
2021/09/10 00:24:34;;;;;;;14.10;10.15;;;;;;;18.78;91.31;101183.94;6180671;23;20425;-78
2021/09/10 00:26:59;;;;;;;15.45;11.43;;;;;;;18.83;91.45;101184.75;6182041;23;20013;-77
2021/09/10 00:29:26;;;;;;;15.30;12.38;;;;;;;18.89;91.42;101188.28;6181906;23;20009;-78
2021/09/10 00:31:51;;;;;;;18.10;13.13;;;;;;;18.97;90.99;101176.59;6183264;23;20009;-78
2021/09/10 00:34:16;;;;;;;17.80;12.50;;;;;;;19.03;90.58;101179.22;6181799;23;20012;-78
2021/09/10 00:36:44;;;;;;;22.67;14.68;;;;;;;19.13;90.49;101181.75;6182742;23;20051;-77
2021/09/10 00:39:14;;;;;;;20.02;13.77;;;;;;;19.20;90.10;101176.28;6182517;23;20009;-79
2021/09/10 00:42:00;;;;;;;20.08;13.73;;;;;;;19.29;89.79;101177.06;6182886;23;20036;-77
2021/09/10 00:44:25;;;;;;;19.38;14.32;;;;;;;19.30;90.18;101178.84;6181849;23;20023;-78
2021/09/10 00:46:51;;;;;;;23.73;14.43;;;;;;;19.28;89.80;101175.31;6183187;23;20009;-78
2021/09/10 00:49:36;;;;;;;22.55;14.13;;;;;;;19.29;90.04;101171.72;6181145;23;20004;-77
2021/09/10 00:52:02;;;;;;;21.73;14.82;;;;;;;19.27;90.16;101176.22;6156929;23;20096;-78
2021/09/10 00:54:27;;;;;;;19.60;14.00;;;;;;;19.27;90.21;101168.22;6181873;23;20029;-79
2021/09/10 00:56:53;;;;;;;25.55;16.23;;;;;;;19.26;90.40;101174.44;6182605;23;20020;-78
2021/09/10 00:59:38;;;;;;;24.08;15.23;;;;;;;19.25;90.97;101181.59;6182601;23;20364;-78
2021/09/10 01:02:04;;;;;;;28.35;15.60;;;;;;;19.28;90.72;101170.84;6176485;23;20037;-78
2021/09/10 01:04:49;;;;;;;23.42;16.58;;;;;;;19.30;91.04;101170.84;6181964;23;20071;-80
2021/09/10 01:07:35;;;;;;;25.95;15.38;;;;;;;19.29;91.32;101174.41;6183936;23;20005;-79
2021/09/10 01:10:02;;;;;;;20.88;15.98;;;;;;;19.31;91.18;101176.16;6183565;23;20080;-78
2021/09/10 01:12:31;;;;;;;22.40;16.08;;;;;;;19.32;91.08;101171.72;6184008;23;20077;-78
2021/09/10 01:14:58;;;;;;;21.67;16.40;;;;;;;19.30;91.04;101173.50;6185990;23;20032;-79
2021/09/10 01:17:23;;;;;;;23.30;15.30;;;;;;;19.34;91.12;101172.56;6183817;23;20009;-77
2021/09/10 01:19:49;;;;;;;24.35;16.08;;;;;;;19.34;91.10;101167.22;6184153;23;20356;-78
2021/09/10 01:22:14;;;;;;;24.08;16.88;;;;;;;19.35;91.19;101169.00;6183543;23;20087;-79
2021/09/10 01:25:32;;;;;;;26.15;17.73;;;;;;;19.31;91.60;101164.59;6185151;23;20092;-78
2021/09/10 01:28:00;;;;;;;21.02;15.63;;;;;;;19.33;91.68;101173.44;6183452;23;20013;-79
2021/09/10 01:30:47;;;;;;;24.52;16.75;;;;;;;19.33;91.76;101165.44;6185278;23;20080;-77
2021/09/10 01:33:33;;;;;;;23.80;16.15;;;;;;;19.39;91.35;101168.03;6182413;23;20013;-78
2021/09/10 01:35:58;;;;;;;21.83;16.85;;;;;;;19.41;91.57;101163.56;6183509;23;20001;-78
2021/09/10 01:38:25;;;;;;;19.75;14.73;;;;;;;19.43;91.29;101166.22;6182375;23;20055;-79
2021/09/10 01:41:11;;;;;;;30.08;16.92;;;;;;;19.43;91.63;101164.41;6184044;23;20076;-78
2021/09/10 01:43:36;;;;;;;20.80;15.63;;;;;;;19.43;91.92;101169.75;6183569;23;20017;-78
2021/09/10 01:46:02;;;;;;;22.95;17.50;;;;;;;19.42;91.86;101162.63;6158522;23;20021;-77
2021/09/10 01:48:27;;;;;;;23.67;17.27;;;;;;;19.40;92.03;101159.13;6183139;23;20013;-77
2021/09/10 01:50:53;;;;;;;27.60;18.83;;;;;;;19.38;92.22;101160.94;6184402;23;20013;-79
2021/09/10 01:53:18;;;;;;;30.55;18.40;;;;;;;19.35;92.35;101166.31;6181659;23;20009;-78
2021/09/10 01:55:43;;;;;;;25.77;18.23;;;;;;;19.31;92.74;101169.94;6184657;23;20080;-78
2021/09/10 01:58:09;;;;;;;33.45;17.55;;;;;;;19.30;92.93;101157.50;6182764;23;20348;-79
2021/09/10 02:00:34;;;;;;;30.02;19.30;;;;;;;19.30;93.04;101168.16;6180486;23;20425;-79
2021/09/10 02:03:00;;;;;;;22.77;16.80;;;;;;;19.30;92.93;101165.50;6182477;23;20036;-78
2021/09/10 02:05:25;;;;;;;27.95;18.23;;;;;;;19.32;93.13;101158.38;6182761;23;20080;-78
2021/09/10 02:07:51;;;;;;;27.20;17.90;;;;;;;19.31;93.12;101164.59;6183956;23;20008;-78
2021/09/10 02:10:17;;;;;;;27.58;18.17;;;;;;;19.32;93.16;101161.03;6156663;23;20004;-78
2021/09/10 02:12:43;;;;;;;26.10;17.95;;;;;;;19.30;93.22;101162.81;6183748;23;20028;-78
2021/09/10 02:15:10;;;;;;;24.77;18.77;;;;;;;19.32;93.03;101161.91;6184058;23;20028;-78
2021/09/10 02:17:36;;;;;;;24.88;19.15;;;;;;;19.31;93.13;101160.13;6184080;23;20001;-78
2021/09/10 02:20:01;;;;;;;27.23;19.15;;;;;;;19.32;93.34;101161.03;6184757;23;20068;-77
2021/09/10 02:22:27;;;;;;;22.35;17.58;;;;;;;19.34;93.23;101159.22;6182417;23;20126;-79
2021/09/10 02:24:52;;;;;;;28.77;19.35;;;;;;;19.34;93.70;101161.88;6183723;23;20001;-78
2021/09/10 02:27:17;;;;;;;30.60;18.95;;;;;;;19.34;93.85;101167.22;6182557;23;20440;-78
2021/09/10 02:29:45;;;;;;;28.17;19.08;;;;;;;19.36;93.58;101166.28;6184370;23;20001;-79
2021/09/10 02:32:11;;;;;;;26.67;18.02;;;;;;;19.40;93.68;101172.47;6182333;23;20088;-79
2021/09/10 02:34:36;;;;;;;28.63;17.77;;;;;;;19.43;93.60;101163.53;6182216;23;20040;-78
2021/09/10 02:37:02;;;;;;;25.98;19.77;;;;;;;19.46;93.74;101167.03;6184844;23;20443;-79
2021/09/10 02:39:27;;;;;;;28.15;17.27;;;;;;;19.47;93.74;101173.28;6184277;23;20013;-79
2021/09/10 02:41:53;;;;;;;27.70;17.52;;;;;;;19.51;93.58;101173.19;6183434;23;20028;-78
2021/09/10 02:44:18;;;;;;;27.40;16.98;;;;;;;19.54;93.53;101167.78;6182004;23;20084;-78
2021/09/10 02:46:43;;;;;;;26.80;18.02;;;;;;;19.55;93.84;101164.22;6183733;23;20005;-78
2021/09/10 02:49:09;;;;;;;22.85;17.48;;;;;;;19.57;93.67;101166.00;6181894;23;20060;-79
2021/09/10 02:51:34;;;;;;;23.27;17.27;;;;;;;19.57;93.61;101166.88;6183402;23;20000;-77
2021/09/10 02:54:00;;;;;;;26.85;17.35;;;;;;;19.58;93.45;101168.63;6183781;23;20005;-77
2021/09/10 02:56:46;;;;;;;24.60;16.80;;;;;;;19.59;93.71;101165.06;6184293;23;20543;-78
2021/09/10 02:59:11;;;;;;;26.70;18.70;;;;;;;19.54;93.89;101167.78;6182937;23;20043;-79
2021/09/10 03:01:37;;;;;;;24.85;17.92;;;;;;;19.55;93.74;101169.56;6178143;23;20001;-78
2021/09/10 03:04:03;;;;;;;26.80;18.60;;;;;;;19.54;93.81;101167.78;6182811;23;20017;-79
2021/09/10 03:06:28;;;;;;;30.75;18.05;;;;;;;19.57;94.18;101176.66;6183923;23;20012;-77
2021/09/10 03:08:54;;;;;;;25.98;17.10;;;;;;;19.59;93.70;101169.50;6182956;23;20080;-78
2021/09/10 03:11:19;;;;;;;24.00;17.00;;;;;;;19.60;93.54;101168.59;6183568;23;20535;-77
2021/09/10 03:13:44;;;;;;;24.95;17.30;;;;;;;19.59;93.57;101170.41;6156969;23;20004;-78
2021/09/10 03:16:10;;;;;;;26.48;18.05;;;;;;;19.58;93.70;101175.78;6184390;23;20012;-79
2021/09/10 03:18:35;;;;;;;27.48;18.70;;;;;;;19.55;93.90;101169.56;6184255;23;20004;-78
2021/09/10 03:21:01;;;;;;;23.80;17.38;;;;;;;19.55;93.59;101172.22;6180804;23;20017;-78
2021/09/10 03:23:27;;;;;;;30.02;20.00;;;;;;;19.51;93.81;101178.53;6181796;23;20012;-77
2021/09/10 03:25:52;;;;;;;27.88;18.85;;;;;;;19.52;93.91;101169.63;6182042;23;20336;-77
2021/09/10 03:28:18;;;;;;;27.73;18.00;;;;;;;19.54;93.87;101170.47;6183804;23;20009;-78
2021/09/10 03:30:43;;;;;;;29.35;19.33;;;;;;;19.50;94.25;101175.88;6184746;23;20084;-77
2021/09/10 03:33:09;;;;;;;26.40;18.23;;;;;;;19.54;94.02;101170.47;6183212;23;20107;-77
2021/09/10 03:35:34;;;;;;;28.05;18.17;;;;;;;19.54;93.75;101173.13;6182352;23;20484;-78
2021/09/10 03:38:00;;;;;;;26.30;17.63;;;;;;;19.51;93.79;101170.50;6184533;23;20009;-77
2021/09/10 03:40:30;;;;;;;24.35;18.23;;;;;;;19.46;94.30;101174.16;6182266;23;20484;-78
2021/09/10 03:42:56;;;;;;;30.45;18.42;;;;;;;19.48;94.24;101173.25;6182799;23;20011;-78
2021/09/10 03:45:21;;;;;;;25.50;18.45;;;;;;;19.48;94.25;101173.25;6183408;23;20075;-78
2021/09/10 03:47:47;;;;;;;28.92;19.67;;;;;;;19.47;94.16;101166.13;6185218;23;20001;-77
2021/09/10 03:50:12;;;;;;;23.02;17.20;;;;;;;19.50;93.98;101173.22;6182515;23;20433;-79
2021/09/10 03:52:37;;;;;;;26.67;17.52;;;;;;;19.51;93.77;101178.53;6183573;23;20004;-79
2021/09/10 03:55:03;;;;;;;25.42;18.42;;;;;;;19.46;94.20;101169.69;6182801;23;20005;-78
2021/09/10 03:57:29;;;;;;;30.02;19.13;;;;;;;19.41;94.52;101168.00;6183230;23;20429;-77
2021/09/10 03:59:54;;;;;;;27.25;17.42;;;;;;;19.40;94.40;101169.81;6184229;23;20004;-78
2021/09/10 04:02:20;;;;;;;27.55;18.00;;;;;;;19.34;94.69;101172.56;6148584;23;20016;-79
2021/09/10 04:04:45;;;;;;;25.65;19.13;;;;;;;19.26;94.78;101171.78;6182032;23;20019;-77
2021/09/10 04:07:10;;;;;;;27.75;19.42;;;;;;;19.23;94.84;101174.50;6181054;23;20029;-78
2021/09/10 04:09:36;;;;;;;30.85;19.20;;;;;;;19.20;95.10;101175.44;6182937;23;20023;-77
2021/09/10 04:12:01;;;;;;;30.75;19.77;;;;;;;19.11;95.55;101176.41;6183525;23;20001;-76
2021/09/10 04:14:27;;;;;;;29.30;20.05;;;;;;;19.12;95.72;101185.31;6183189;23;20024;-78
2021/09/10 04:16:52;;;;;;;34.88;19.17;;;;;;;19.05;96.13;101179.19;6183757;23;20001;-77
2021/09/10 04:19:18;;;;;;;27.52;19.45;;;;;;;18.98;96.59;101177.50;6182742;23;20093;-79
2021/09/10 04:21:43;;;;;;;32.28;19.30;;;;;;;18.98;96.31;101188.19;6182744;23;20020;-77
2021/09/10 04:24:09;;;;;;;34.08;20.92;;;;;;;18.94;97.08;101179.31;6182327;23;20013;-79
2021/09/10 04:26:35;;;;;;;32.83;19.85;;;;;;;18.96;97.14;101184.63;6183866;23;20009;-79
2021/09/10 04:29:00;;;;;;;30.08;19.63;;;;;;;18.98;97.08;101180.19;6182972;23;20087;-77
2021/09/10 04:31:25;;;;;;;33.83;21.33;;;;;;;18.94;97.11;101175.78;6181671;23;20427;-78
2021/09/10 04:33:51;;;;;;;33.95;21.38;;;;;;;18.93;97.27;101176.69;6182790;23;20001;-78
2021/09/10 04:36:17;;;;;;;30.13;19.77;;;;;;;18.90;97.36;101174.06;6181572;23;20011;-78
2021/09/10 04:39:02;;;;;;;36.15;21.05;;;;;;;18.89;97.53;101175.81;6183610;23;20344;-79
2021/09/10 04:41:28;;;;;;;35.75;20.85;;;;;;;18.88;97.61;101171.38;6182628;23;20005;-79
2021/09/10 04:44:13;;;;;;;31.95;21.38;;;;;;;18.87;97.97;101172.28;6184347;23;20009;-77
2021/09/10 04:46:38;;;;;;;28.88;18.95;;;;;;;18.88;97.72;101171.38;6185585;23;20012;-77
2021/09/10 04:49:24;;;;;;;29.88;20.40;;;;;;;18.86;97.98;101168.72;6184793;23;20062;-77
2021/09/10 04:51:49;;;;;;;33.53;20.20;;;;;;;18.87;97.58;101158.94;6185699;23;20009;-78
2021/09/10 04:54:16;;;;;;;32.53;21.05;;;;;;;18.82;97.54;101164.31;6184600;23;20443;-77
2021/09/10 04:56:43;;;;;;;34.28;20.20;;;;;;;18.77;97.56;101163.50;6185172;23;20033;-77
2021/09/10 04:59:13;;;;;;;28.52;19.17;;;;;;;18.73;97.94;101156.44;6186583;23;20040;-78
2021/09/10 05:01:39;;;;;;;32.20;20.45;;;;;;;18.69;98.01;101163.59;6154126;23;20013;-78
2021/09/10 05:04:04;;;;;;;32.47;21.92;;;;;;;18.66;97.92;101162.75;6182506;23;20055;-78
2021/09/10 05:06:52;;;;;;;34.17;22.25;;;;;;;18.64;98.46;101168.09;6182993;23;20016;-78
2021/09/10 05:09:21;;;;;;;35.10;20.13;;;;;;;18.63;98.72;101162.78;6183582;23;20005;-77
2021/09/10 05:11:47;;;;;;;34.58;19.40;;;;;;;18.64;98.66;101172.56;6182871;23;20031;-77
2021/09/10 05:14:33;;;;;;;32.17;20.23;;;;;;;18.67;98.66;101177.84;6184195;23;20009;-78
2021/09/10 05:16:58;;;;;;;39.60;22.98;;;;;;;18.64;98.79;101172.56;6185964;23;20004;-78
2021/09/10 05:19:24;;;;;;;38.55;22.05;;;;;;;18.66;98.64;101170.75;6185390;23;20080;-77
2021/09/10 05:21:50;;;;;;;33.92;21.48;;;;;;;18.67;99.11;101167.19;6157050;23;20025;-78
2021/09/10 05:24:15;;;;;;;36.33;21.73;;;;;;;18.67;98.97;101169.84;6180501;23;20008;-77
2021/09/10 05:26:41;;;;;;;35.22;21.67;;;;;;;18.67;98.67;101175.19;6183786;23;20014;-77
2021/09/10 05:29:06;;;;;;;38.15;22.83;;;;;;;18.66;98.74;101179.59;6184875;23;20029;-78
2021/09/10 05:31:32;;;;;;;31.73;20.40;;;;;;;18.64;98.68;101185.88;6185174;23;20009;-77
2021/09/10 05:33:57;;;;;;;34.03;22.05;;;;;;;18.62;98.55;101185.88;6183905;23;20009;-77
2021/09/10 05:36:23;;;;;;;35.33;22.42;;;;;;;18.60;98.73;101186.78;6183980;23;20421;-76
2021/09/10 05:38:48;;;;;;;33.10;20.08;;;;;;;18.61;98.91;101193.91;6185024;23;20001;-77
2021/09/10 05:41:14;;;;;;;33.70;22.10;;;;;;;18.62;98.82;101209.00;6186979;23;20020;-77
2021/09/10 05:43:39;;;;;;;37.83;21.73;;;;;;;18.64;99.08;101199.22;6184620;23;20033;-79
2021/09/10 05:46:05;;;;;;;37.88;22.27;;;;;;;18.67;98.84;101209.84;6183596;23;20008;-78
2021/09/10 05:48:31;;;;;;;37.20;22.08;;;;;;;18.65;98.62;101209.84;6184987;23;20009;-80
2021/09/10 05:50:56;;;;;;;44.83;23.05;;;;;;;18.67;98.86;101213.38;6156784;23;20325;-77
2021/09/10 05:53:22;;;;;;;38.53;21.48;;;;;;;18.70;98.66;101221.31;6185946;23;20009;-79
2021/09/10 05:56:07;;;;;;;32.33;21.95;;;;;;;18.72;98.92;101221.34;6184332;23;20009;-78
2021/09/10 05:58:55;;;;;;;33.88;22.25;;;;;;;18.70;98.52;101216.00;6183381;23;20005;-79
2021/09/10 06:01:21;;;;;;;40.28;21.70;;;;;;;18.70;98.55;101218.66;6180173;23;20009;-78
2021/09/10 06:03:46;;;;;;;39.30;21.45;;;;;;;18.71;98.18;101217.78;6185528;23;20471;-77
2021/09/10 06:06:11;;;;;;;37.13;22.13;;;;;;;18.72;98.76;101221.34;6184865;23;20001;-79
2021/09/10 06:08:37;;;;;;;35.95;21.88;;;;;;;18.77;98.93;101219.47;6185848;23;20008;-77
2021/09/10 06:11:22;;;;;;;34.95;22.08;;;;;;;18.85;98.85;101222.94;6184285;23;20005;-77
2021/09/10 06:13:48;;;;;;;38.47;23.02;;;;;;;18.96;98.55;101228.16;6186021;23;20005;-78
2021/09/10 06:16:14;;;;;;;38.83;21.30;;;;;;;19.07;98.41;101228.03;6184714;23;20005;-79
2021/09/10 06:18:39;;;;;;;31.35;20.52;;;;;;;19.21;97.71;101238.56;6185674;23;20037;-78
2021/09/10 06:21:05;;;;;;;31.13;20.17;;;;;;;19.35;96.88;101238.38;6184800;23;20336;-79
2021/09/10 06:23:31;;;;;;;31.20;19.73;;;;;;;19.42;96.57;101232.03;6182998;23;20013;-78
2021/09/10 06:25:56;;;;;;;28.88;19.70;;;;;;;19.48;95.96;101237.28;6185062;23;20001;-78
2021/09/10 06:28:22;;;;;;;28.13;18.33;;;;;;;19.55;95.99;101224.75;6185313;23;20001;-78
2021/09/10 06:30:47;;;;;;;28.15;19.27;;;;;;;19.62;95.06;101233.53;6183259;23;20012;-78
2021/09/10 06:33:13;;;;;;;29.48;19.67;;;;;;;19.68;95.02;101231.66;6179024;23;20013;-78
2021/09/10 06:35:38;;;;;;;30.67;19.33;;;;;;;19.75;94.77;101232.47;6183024;23;20005;-78
2021/09/10 06:38:04;;;;;;;26.98;18.92;;;;;;;19.85;94.15;101247.44;6182526;23;20047;-79
2021/09/10 06:40:30;;;;;;;27.88;18.90;;;;;;;19.96;93.60;101243.75;6184929;23;20136;-78
2021/09/10 06:42:55;;;;;;;27.20;17.75;;;;;;;20.02;92.85;101238.28;6182364;23;20540;-79
2021/09/10 06:45:22;;;;;;;22.67;18.23;;;;;;;20.10;92.49;101240.84;6184380;23;20008;-78
2021/09/10 06:47:48;;;;;;;28.92;17.42;;;;;;;20.16;91.72;101244.28;6182602;23;20479;-78
2021/09/10 06:50:14;;;;;;;24.80;16.48;;;;;;;20.18;91.29;101239.81;6185000;23;20068;-80
2021/09/10 06:52:59;;;;;;;28.48;16.92;;;;;;;20.26;91.18;101249.47;6185542;23;20463;-78
2021/09/10 06:55:25;;;;;;;21.65;16.02;;;;;;;20.31;90.59;101250.28;6181959;23;20076;-77
2021/09/10 06:57:51;;;;;;;21.45;16.08;;;;;;;20.36;90.05;101249.28;6182121;23;20009;-76
2021/09/10 07:00:16;;;;;;;22.52;15.95;;;;;;;20.36;90.16;101251.97;6178177;23;20001;-75
2021/09/10 07:02:42;;;;;;;24.70;15.38;;;;;;;20.34;90.52;101252.91;6183756;23;20009;-77
2021/09/10 07:05:08;;;;;;;21.60;16.02;;;;;;;20.41;90.07;101257.22;6182707;23;20009;-78
2021/09/10 07:07:34;;;;;;;23.67;15.57;;;;;;;20.46;90.39;101244.66;6182007;23;20082;-79
2021/09/10 07:09:59;;;;;;;21.80;15.18;;;;;;;20.54;90.10;101257.91;6181645;23;20481;-76
2021/09/10 07:12:26;;;;;;;27.52;16.10;;;;;;;20.60;89.48;101254.22;6178356;23;20009;-78
2021/09/10 07:14:51;;;;;;;21.85;14.20;;;;;;;20.69;88.47;101257.63;6179100;23;20012;-77
2021/09/10 07:17:17;;;;;;;22.48;14.75;;;;;;;20.73;88.01;101255.78;6181183;23;20005;-78
2021/09/10 07:19:42;;;;;;;24.80;14.45;;;;;;;20.72;88.24;101264.72;6180508;23;20455;-77
2021/09/10 07:22:08;;;;;;;20.20;14.02;;;;;;;20.76;88.72;101268.22;6177543;23;20021;-77
2021/09/10 07:24:33;;;;;;;21.70;12.35;;;;;;;20.87;87.30;101255.50;6176737;23;20036;-76
2021/09/10 07:26:59;;;;;;;18.13;13.57;;;;;;;20.97;86.53;101264.22;6184745;23;20542;-78
2021/09/10 07:29:25;;;;;;;20.27;13.68;;;;;;;20.95;86.92;101266.94;6183762;23;20373;-77
2021/09/10 07:31:51;;;;;;;17.50;12.23;;;;;;;20.93;86.66;101270.56;6181103;23;20041;-77
2021/09/10 07:34:17;;;;;;;17.42;12.07;;;;;;;20.99;86.17;101275.78;6182073;23;20052;-77
2021/09/10 07:36:48;;;;;;;19.77;12.45;;;;;;;21.04;86.12;101273.91;6177507;23;20005;-78
2021/09/10 07:39:34;;;;;;;19.13;10.85;;;;;;;21.15;85.30;101277.25;6179991;23;20001;-78
2021/09/10 07:41:59;;;;;;;18.50;11.63;;;;;;;21.25;85.18;101277.06;6181620;23;20472;-76
2021/09/10 07:44:25;;;;;;;20.08;11.27;;;;;;;21.39;84.55;101277.63;6177100;23;20005;-78
2021/09/10 07:46:52;;;;;;;17.80;11.88;;;;;;;21.49;84.91;101287.22;6178467;23;20479;-77
2021/09/10 07:49:21;;;;;;;21.48;11.15;;;;;;;21.55;83.86;101288.94;6180562;23;20025;-76
2021/09/10 07:51:50;;;;;;;18.20;10.90;;;;;;;21.64;82.89;101286.03;6178524;23;20013;-77
2021/09/10 07:54:16;;;;;;;19.17;13.15;;;;;;;21.64;82.65;101293.22;6177832;23;20471;-78
2021/09/10 07:56:41;;;;;;;17.00;13.27;;;;;;;21.48;83.14;101296.16;6175956;23;20013;-76
2021/09/10 07:59:07;;;;;;;16.42;11.82;;;;;;;21.39;83.43;101289.25;6182839;23;20088;-79
2021/09/10 08:01:33;;;;;;;21.70;12.02;;;;;;;21.43;82.89;101294.50;6176191;23;20084;-77
2021/09/10 08:03:58;;;;;;;15.57;11.82;;;;;;;21.50;82.92;101305.06;6177452;23;20023;-76
2021/09/10 08:06:24;;;;;;;19.55;12.38;;;;;;;21.53;82.84;101307.72;6179356;23;20009;-78
2021/09/10 08:09:09;;;;;;;20.33;12.50;;;;;;;21.67;81.73;101306.53;6181896;23;20005;-78
2021/09/10 08:11:35;;;;;;;17.75;13.93;;;;;;;21.89;82.74;101307.81;6182134;23;20005;-77
2021/09/10 08:14:23;;;;;;;20.05;16.45;;;;;;;22.06;80.26;101295.81;6182614;23;20062;-78
2021/09/10 08:16:49;;;;;;;27.40;20.80;;;;;;;22.20;79.55;101296.31;6184103;23;20009;-78
2021/09/10 08:19:14;;;;;;;24.55;19.85;;;;;;;22.23;78.89;101298.97;6182778;23;20512;-78
2021/09/10 08:21:40;;;;;;;23.77;18.45;;;;;;;22.44;78.80;101293.13;6182196;23;20025;-78
2021/09/10 08:24:09;;;;;;;24.60;19.02;;;;;;;22.70;79.26;101300.47;6182046;23;20011;-76
2021/09/10 08:26:34;;;;;;;19.40;17.17;;;;;;;22.87;76.67;101292.84;6184082;23;20012;-78
2021/09/10 08:29:00;;;;;;;22.27;15.20;;;;;;;23.14;75.80;101292.13;6186400;23;20044;-77
2021/09/10 08:31:25;;;;;;;20.45;14.55;;;;;;;23.22;74.67;101293.69;6183586;23;19997;-78
2021/09/10 08:33:53;;;;;;;20.92;14.55;;;;;;;23.30;74.43;101290.75;6184203;23;20008;-78
2021/09/10 08:36:19;;;;;;;15.00;11.57;;;;;;;23.28;72.85;101291.72;6155575;23;20016;-77
2021/09/10 08:38:44;;;;;;;13.32;10.90;;;;;;;23.17;73.63;101300.09;6184937;23;20004;-77
2021/09/10 08:41:13;;;;;;;11.73;9.80;;;;;;;23.02;74.24;101306.75;6182239;23;20015;-77
2021/09/10 08:43:46;;;;;;;16.25;11.65;;;;;;;22.96;75.31;101304.25;6180304;23;20017;-77
2021/09/10 08:46:11;;;;;;;18.02;10.70;;;;;;;23.10;73.46;101301.16;6183693;23;20024;-78
2021/09/10 08:48:37;;;;;;;14.57;9.70;;;;;;;23.14;73.42;101302.88;6183761;23;20009;-79
2021/09/10 08:51:02;;;;;;;15.80;11.25;;;;;;;22.88;74.60;101313.41;6184369;23;20009;-78
2021/09/10 08:53:28;;;;;;;14.40;10.90;;;;;;;22.91;74.57;101312.41;6183978;23;20005;-77
2021/09/10 08:55:53;;;;;;;14.05;10.85;;;;;;;22.97;75.78;101314.06;6185697;23;20495;-77
2021/09/10 08:58:18;;;;;;;24.58;11.35;;;;;;;22.99;74.51;101318.47;6184709;23;20011;-77
2021/09/10 09:01:05;;;;;;;21.15;12.30;;;;;;;22.71;75.14;101323.72;6179197;23;20055;-79
2021/09/10 09:03:31;;;;;;;17.00;10.93;;;;;;;22.71;75.79;101334.44;6184266;23;20040;-77
2021/09/10 09:06:30;;;;;;;16.27;9.18;;;;;;;22.62;75.60;101340.03;6181848;23;20068;-77
2021/09/10 09:08:55;;;;;;;15.90;10.20;;;;;;;22.54;76.90;101343.78;6185513;23;20012;-76
2021/09/10 09:11:25;;;;;;;15.13;10.82;;;;;;;22.43;76.64;101337.81;6183856;23;20005;-77
2021/09/10 09:13:54;;;;;;;14.55;11.13;;;;;;;22.49;76.02;101332.31;6183414;23;20092;-77
2021/09/10 09:16:24;;;;;;;15.13;10.65;;;;;;;22.37;77.25;101343.34;6182650;23;20306;-78
2021/09/10 09:18:52;;;;;;;29.83;13.48;;;;;;;22.37;76.27;101343.34;6180902;23;20032;-78
2021/09/10 09:21:36;;;;;;;20.10;15.02;;;;;;;22.20;77.44;101344.56;6181586;23;20024;-77
2021/09/10 09:24:14;;;;;;;17.75;13.55;;;;;;;22.19;76.57;101341.94;6183503;23;20449;-77
2021/09/10 09:27:00;;;;;;;32.17;16.95;;;;;;;22.09;78.05;101346.66;6180866;23;20005;-78
2021/09/10 09:29:25;;;;;;;32.80;18.23;;;;;;;22.11;77.71;101362.69;6159697;23;20017;-77
2021/09/10 09:32:20;;;;;;;29.98;21.60;;;;;;;22.00;77.38;101352.22;6181900;23;20447;-77
2021/09/10 09:34:49;;;;;;;29.73;22.70;;;;;;;21.95;77.23;101352.34;6181159;23;20086;-75
2021/09/10 09:37:24;;;;;;;44.08;26.15;;;;;;;21.87;77.86;101357.84;6180046;23;20005;-77
2021/09/10 09:39:51;;;;;;;29.60;24.50;;;;;;;21.63;78.85;101363.75;6182316;23;20001;-77
2021/09/10 09:42:27;;;;;;;31.50;25.00;;;;;;;21.67;79.05;101354.72;6179412;23;20340;-77
2021/09/10 09:45:15;;;;;;;28.55;25.30;;;;;;;21.70;78.63;101354.66;6179459;23;20007;-77
2021/09/10 09:47:44;;;;;;;27.20;23.00;;;;;;;21.84;78.78;101365.97;6182158;23;20017;-78
2021/09/10 09:50:14;;;;;;;28.73;24.02;;;;;;;21.85;78.72;101370.41;6183937;23;20083;-79
2021/09/10 09:52:40;;;;;;;32.17;28.33;;;;;;;21.76;78.31;101372.38;6180897;23;20062;-79
2021/09/10 09:55:10;;;;;;;33.42;26.85;;;;;;;21.80;78.38;101369.63;6181623;23;20321;-77
2021/09/10 09:57:55;;;;;;;32.63;28.25;;;;;;;21.92;77.41;101365.81;6179918;23;20009;-79
2021/09/10 10:00:24;;;;;;;35.55;29.35;;;;;;;22.16;77.39;101377.72;6176765;23;20021;-80
2021/09/10 10:02:50;;;;;;;34.88;28.17;;;;;;;22.21;76.33;101367.78;6184336;23;20028;-78
2021/09/10 10:05:17;;;;;;;35.15;28.33;;;;;;;22.28;75.67;101352.44;6182346;23;20420;-76
2021/09/10 10:08:01;;;;;;;35.80;27.75;;;;;;;22.43;76.39;101366.44;6183317;23;20000;-76
2021/09/10 10:10:32;;;;;;;31.40;25.08;;;;;;;22.63;75.04;101352.53;6147315;23;20001;-78
2021/09/10 10:13:00;;;;;;;30.98;26.33;;;;;;;22.83;74.48;101365.41;6185339;23;20056;-78
2021/09/10 10:15:29;;;;;;;32.63;26.17;;;;;;;22.97;73.96;101362.38;6184205;23;20017;-78
2021/09/10 10:17:56;;;;;;;30.52;26.55;;;;;;;23.22;72.78;101357.22;6185101;23;20032;-77
2021/09/10 10:20:44;;;;;;;31.45;25.65;;;;;;;23.42;72.05;101359.34;6184007;23;20008;-78
2021/09/10 10:23:43;;;;;;;30.48;25.52;;;;;;;23.31;72.04;101361.47;6183263;23;20436;-76
2021/09/10 10:26:13;;;;;;;29.35;23.92;;;;;;;23.21;72.32;101356.38;6184935;23;20375;-79
2021/09/10 10:28:41;;;;;;;27.42;24.13;;;;;;;23.09;73.00;101372.78;6184977;23;20333;-77
2021/09/10 10:31:07;;;;;;;23.02;20.38;;;;;;;22.98;72.66;101369.50;6184401;23;20430;-77
2021/09/10 10:33:32;;;;;;;28.55;22.92;;;;;;;22.72;73.84;101371.06;6156022;23;20004;-78
2021/09/10 10:35:57;;;;;;;26.10;21.58;;;;;;;22.41;75.36;101379.88;6184058;23;20035;-76
2021/09/10 10:38:23;;;;;;;25.75;21.83;;;;;;;22.40;76.03;101383.47;6182781;23;20437;-78
2021/09/10 10:41:11;;;;;;;19.25;16.95;;;;;;;22.26;76.40;101394.50;6179204;23;20009;-77
2021/09/10 10:43:36;;;;;;;21.95;17.33;;;;;;;22.39;76.01;101376.34;6182368;23;20009;-77
2021/09/10 10:46:07;;;;;;;22.38;16.38;;;;;;;22.61;75.50;101381.19;6182019;23;20166;-78
2021/09/10 10:48:33;;;;;;;20.25;14.68;;;;;;;22.73;74.87;101375.50;6183350;23;20028;-78
2021/09/10 10:51:01;;;;;;;17.67;14.38;;;;;;;23.03;73.65;101370.25;6183424;23;20428;-76
2021/09/10 10:53:27;;;;;;;18.33;12.60;;;;;;;23.40;72.17;101363.91;6180980;23;20065;-76
2021/09/10 10:55:52;;;;;;;17.65;12.52;;;;;;;23.99;69.96;101359.50;6184573;23;20009;-76
2021/09/10 10:58:20;;;;;;;16.25;12.10;;;;;;;24.54;66.96;101354.13;6184380;23;20060;-76
2021/09/10 11:00:47;;;;;;;13.23;10.50;;;;;;;24.64;66.73;101352.03;6179324;23;20009;-76
2021/09/10 11:03:16;;;;;;;13.20;10.48;;;;;;;24.58;65.49;101353.97;6184085;23;20011;-77
2021/09/10 11:06:14;;;;;;;11.43;8.55;;;;;;;24.33;65.86;101358.41;6184685;23;20076;-79
2021/09/10 11:08:43;;;;;;;12.80;10.13;;;;;;;23.71;68.08;101361.19;6184294;23;20381;-78
2021/09/10 11:11:28;;;;;;;16.25;10.18;;;;;;;23.38;68.16;101357.69;6184561;23;20009;-78
2021/09/10 11:14:13;;;;;;;10.55;9.50;;;;;;;23.22;70.63;101366.19;6185244;23;20012;-78
2021/09/10 11:16:40;;;;;;;12.05;10.75;;;;;;;23.04;71.44;101372.03;6183395;23;20024;-77
2021/09/10 11:19:06;;;;;;;14.63;11.32;;;;;;;23.17;70.35;101370.78;6183523;23;20084;-78